sensor_id;sensor_type;location;lat;lon;timestamp;temperature;humidity
29571;DHT22;16814;52.118;11.436;2023-09-07T00:00:26;18.40;99.90
29571;DHT22;16814;52.118;11.436;2023-09-07T00:02:54;18.30;99.90
29571;DHT22;16814;52.118;11.436;2023-09-07T00:05:21;18.40;99.90
29571;DHT22;16814;52.118;11.436;2023-09-07T00:07:50;18.20;99.90
29571;DHT22;16814;52.118;11.436;2023-09-07T00:10:17;18.00;99.90
29571;DHT22;16814;52.118;11.436;2023-09-07T00:12:48;18.10;99.90
29571;DHT22;16814;52.118;11.436;2023-09-07T00:15:14;18.10;99.90
29571;DHT22;16814;52.118;11.436;2023-09-07T00:17:43;18.00;99.90
29571;DHT22;16814;52.118;11.436;2023-09-07T00:20:16;18.00;99.90
29571;DHT22;16814;52.118;11.436;2023-09-07T00:22:44;17.90;99.90
29571;DHT22;16814;52.118;11.436;2023-09-07T00:25:11;17.70;99.90
29571;DHT22;16814;52.118;11.436;2023-09-07T00:27:39;17.60;99.90
29571;DHT22;16814;52.118;11.436;2023-09-07T00:30:07;17.60;99.90
29571;DHT22;16814;52.118;11.436;2023-09-07T00:32:38;17.60;99.90
29571;DHT22;16814;52.118;11.436;2023-09-07T00:35:06;17.60;99.90
29571;DHT22;16814;52.118;11.436;2023-09-07T00:37:32;17.60;99.90
29571;DHT22;16814;52.118;11.436;2023-09-07T00:39:58;17.60;99.90
29571;DHT22;16814;52.118;11.436;2023-09-07T00:42:25;17.60;99.90
29571;DHT22;16814;52.118;11.436;2023-09-07T00:44:53;17.70;99.90
29571;DHT22;16814;52.118;11.436;2023-09-07T00:47:21;17.60;99.90
29571;DHT22;16814;52.118;11.436;2023-09-07T00:49:49;17.60;99.90
29571;DHT22;16814;52.118;11.436;2023-09-07T00:52:18;17.60;99.90
29571;DHT22;16814;52.118;11.436;2023-09-07T00:54:44;17.50;99.90
29571;DHT22;16814;52.118;11.436;2023-09-07T00:57:11;17.50;99.90
29571;DHT22;16814;52.118;11.436;2023-09-07T00:59:39;17.50;99.90
29571;DHT22;16814;52.118;11.436;2023-09-07T01:02:05;17.60;99.90
29571;DHT22;16814;52.118;11.436;2023-09-07T01:04:33;17.60;99.90
29571;DHT22;16814;52.118;11.436;2023-09-07T01:07:25;17.50;99.90
29571;DHT22;16814;52.118;11.436;2023-09-07T01:09:59;17.40;99.90
29571;DHT22;16814;52.118;11.436;2023-09-07T01:12:26;17.40;99.90
29571;DHT22;16814;52.118;11.436;2023-09-07T01:14:56;17.30;99.90
29571;DHT22;16814;52.118;11.436;2023-09-07T01:17:23;17.20;99.90
29571;DHT22;16814;52.118;11.436;2023-09-07T01:19:50;17.10;99.90
29571;DHT22;16814;52.118;11.436;2023-09-07T01:22:20;17.40;99.90
29571;DHT22;16814;52.118;11.436;2023-09-07T01:24:50;17.20;99.90
29571;DHT22;16814;52.118;11.436;2023-09-07T01:27:22;17.40;99.90
29571;DHT22;16814;52.118;11.436;2023-09-07T01:29:52;17.50;99.90
29571;DHT22;16814;52.118;11.436;2023-09-07T01:32:19;17.60;99.90
29571;DHT22;16814;52.118;11.436;2023-09-07T01:34:45;17.60;99.90
29571;DHT22;16814;52.118;11.436;2023-09-07T01:37:12;17.70;99.90
29571;DHT22;16814;52.118;11.436;2023-09-07T01:39:40;17.60;99.90
29571;DHT22;16814;52.118;11.436;2023-09-07T01:42:08;17.50;99.90
29571;DHT22;16814;52.118;11.436;2023-09-07T01:44:34;17.40;99.90
29571;DHT22;16814;52.118;11.436;2023-09-07T01:47:02;17.30;99.90
29571;DHT22;16814;52.118;11.436;2023-09-07T01:49:30;17.30;99.90
29571;DHT22;16814;52.118;11.436;2023-09-07T01:51:57;17.30;99.90
29571;DHT22;16814;52.118;11.436;2023-09-07T01:54:24;17.30;99.90
29571;DHT22;16814;52.118;11.436;2023-09-07T01:56:52;17.20;99.90
29571;DHT22;16814;52.118;11.436;2023-09-07T01:59:17;17.00;99.90
29571;DHT22;16814;52.118;11.436;2023-09-07T02:01:46;16.90;99.90
29571;DHT22;16814;52.118;11.436;2023-09-07T02:04:11;16.80;99.90
29571;DHT22;16814;52.118;11.436;2023-09-07T02:06:38;16.70;99.90
29571;DHT22;16814;52.118;11.436;2023-09-07T02:09:05;16.70;99.90
29571;DHT22;16814;52.118;11.436;2023-09-07T02:11:32;16.70;99.90
29571;DHT22;16814;52.118;11.436;2023-09-07T02:13:58;16.80;99.90
29571;DHT22;16814;52.118;11.436;2023-09-07T02:16:24;16.80;99.90
29571;DHT22;16814;52.118;11.436;2023-09-07T02:18:50;16.90;99.90
29571;DHT22;16814;52.118;11.436;2023-09-07T02:21:17;16.80;99.90
29571;DHT22;16814;52.118;11.436;2023-09-07T02:23:46;16.90;99.90
29571;DHT22;16814;52.118;11.436;2023-09-07T02:26:13;16.90;99.90
29571;DHT22;16814;52.118;11.436;2023-09-07T02:28:40;17.50;99.90
29571;DHT22;16814;52.118;11.436;2023-09-07T02:31:07;16.90;99.90
29571;DHT22;16814;52.118;11.436;2023-09-07T02:33:35;16.90;99.90
29571;DHT22;16814;52.118;11.436;2023-09-07T02:36:02;16.90;99.90
29571;DHT22;16814;52.118;11.436;2023-09-07T02:38:28;16.90;99.90
29571;DHT22;16814;52.118;11.436;2023-09-07T02:40:57;16.80;99.90
29571;DHT22;16814;52.118;11.436;2023-09-07T02:43:24;16.90;99.90
29571;DHT22;16814;52.118;11.436;2023-09-07T02:45:53;17.10;99.90
29571;DHT22;16814;52.118;11.436;2023-09-07T02:48:21;17.00;99.90
29571;DHT22;16814;52.118;11.436;2023-09-07T02:50:49;17.00;99.90
29571;DHT22;16814;52.118;11.436;2023-09-07T02:53:16;16.80;99.90
29571;DHT22;16814;52.118;11.436;2023-09-07T02:55:48;17.20;99.90
29571;DHT22;16814;52.118;11.436;2023-09-07T02:58:17;16.80;99.90
29571;DHT22;16814;52.118;11.436;2023-09-07T03:00:45;16.70;99.90
29571;DHT22;16814;52.118;11.436;2023-09-07T03:03:14;16.50;99.90
29571;DHT22;16814;52.118;11.436;2023-09-07T03:05:41;16.50;99.90
29571;DHT22;16814;52.118;11.436;2023-09-07T03:08:09;16.40;99.90
29571;DHT22;16814;52.118;11.436;2023-09-07T03:10:36;16.40;99.90
29571;DHT22;16814;52.118;11.436;2023-09-07T03:13:09;16.40;99.90
29571;DHT22;16814;52.118;11.436;2023-09-07T03:15:37;16.40;99.90
29571;DHT22;16814;52.118;11.436;2023-09-07T03:18:04;16.30;99.90
29571;DHT22;16814;52.118;11.436;2023-09-07T03:20:33;16.30;99.90
29571;DHT22;16814;52.118;11.436;2023-09-07T03:23:01;16.30;99.90
29571;DHT22;16814;52.118;11.436;2023-09-07T03:25:29;16.30;99.90
29571;DHT22;16814;52.118;11.436;2023-09-07T03:27:55;16.50;99.90
29571;DHT22;16814;52.118;11.436;2023-09-07T03:30:20;16.50;99.90
29571;DHT22;16814;52.118;11.436;2023-09-07T03:32:46;16.50;99.90
29571;DHT22;16814;52.118;11.436;2023-09-07T03:35:13;16.30;99.90
29571;DHT22;16814;52.118;11.436;2023-09-07T03:37:38;16.20;99.90
29571;DHT22;16814;52.118;11.436;2023-09-07T03:40:07;16.10;99.90
29571;DHT22;16814;52.118;11.436;2023-09-07T03:42:36;16.20;99.90
29571;DHT22;16814;52.118;11.436;2023-09-07T03:45:05;16.20;99.90
29571;DHT22;16814;52.118;11.436;2023-09-07T03:47:32;16.10;99.90
29571;DHT22;16814;52.118;11.436;2023-09-07T03:49:57;16.10;99.90
29571;DHT22;16814;52.118;11.436;2023-09-07T03:52:26;16.10;99.90
29571;DHT22;16814;52.118;11.436;2023-09-07T03:54:57;16.10;99.90
29571;DHT22;16814;52.118;11.436;2023-09-07T03:57:26;16.10;99.90
29571;DHT22;16814;52.118;11.436;2023-09-07T03:59:53;16.00;99.90
29571;DHT22;16814;52.118;11.436;2023-09-07T04:02:24;15.90;99.90
29571;DHT22;16814;52.118;11.436;2023-09-07T04:04:53;15.80;99.90
29571;DHT22;16814;52.118;11.436;2023-09-07T04:07:21;15.80;99.90
29571;DHT22;16814;52.118;11.436;2023-09-07T04:09:49;15.70;99.90
29571;DHT22;16814;52.118;11.436;2023-09-07T04:12:17;15.60;99.90
29571;DHT22;16814;52.118;11.436;2023-09-07T04:14:43;15.60;99.90
29571;DHT22;16814;52.118;11.436;2023-09-07T04:17:11;15.60;99.90
29571;DHT22;16814;52.118;11.436;2023-09-07T04:19:39;15.60;99.90
29571;DHT22;16814;52.118;11.436;2023-09-07T04:22:05;15.60;99.90
29571;DHT22;16814;52.118;11.436;2023-09-07T04:24:32;15.60;99.90
29571;DHT22;16814;52.118;11.436;2023-09-07T04:27:01;15.70;99.90
29571;DHT22;16814;52.118;11.436;2023-09-07T04:29:27;15.80;99.90
29571;DHT22;16814;52.118;11.436;2023-09-07T04:31:55;15.80;99.90
29571;DHT22;16814;52.118;11.436;2023-09-07T04:34:24;15.80;99.90
29571;DHT22;16814;52.118;11.436;2023-09-07T04:36:52;15.80;99.90
29571;DHT22;16814;52.118;11.436;2023-09-07T04:39:19;15.70;99.90
29571;DHT22;16814;52.118;11.436;2023-09-07T04:41:47;15.80;99.90
29571;DHT22;16814;52.118;11.436;2023-09-07T04:44:14;15.80;99.90
29571;DHT22;16814;52.118;11.436;2023-09-07T04:46:40;16.00;99.90
29571;DHT22;16814;52.118;11.436;2023-09-07T04:49:07;15.90;99.90
29571;DHT22;16814;52.118;11.436;2023-09-07T04:51:41;15.90;99.90
29571;DHT22;16814;52.118;11.436;2023-09-07T04:54:07;15.80;99.90
29571;DHT22;16814;52.118;11.436;2023-09-07T04:56:33;15.70;99.90
29571;DHT22;16814;52.118;11.436;2023-09-07T04:58:58;15.70;99.90
29571;DHT22;16814;52.118;11.436;2023-09-07T05:01:26;15.60;99.90
29571;DHT22;16814;52.118;11.436;2023-09-07T05:03:53;15.60;99.90
29571;DHT22;16814;52.118;11.436;2023-09-07T05:06:21;15.50;99.90
29571;DHT22;16814;52.118;11.436;2023-09-07T05:08:50;15.60;99.90
29571;DHT22;16814;52.118;11.436;2023-09-07T05:11:19;15.80;99.90
29571;DHT22;16814;52.118;11.436;2023-09-07T05:13:46;16.20;99.90
29571;DHT22;16814;52.118;11.436;2023-09-07T05:16:15;16.90;99.90
29571;DHT22;16814;52.118;11.436;2023-09-07T05:18:41;17.60;99.90
29571;DHT22;16814;52.118;11.436;2023-09-07T05:21:17;18.10;99.90
29571;DHT22;16814;52.118;11.436;2023-09-07T05:23:43;18.20;99.90
29571;DHT22;16814;52.118;11.436;2023-09-07T05:26:09;17.90;99.90
29571;DHT22;16814;52.118;11.436;2023-09-07T05:28:36;17.70;99.90
29571;DHT22;16814;52.118;11.436;2023-09-07T05:31:04;17.50;99.90
29571;DHT22;16814;52.118;11.436;2023-09-07T05:33:31;17.30;99.90
29571;DHT22;16814;52.118;11.436;2023-09-07T05:35:58;17.10;99.90
29571;DHT22;16814;52.118;11.436;2023-09-07T05:38:25;16.80;99.90
29571;DHT22;16814;52.118;11.436;2023-09-07T05:40:53;16.50;99.90
29571;DHT22;16814;52.118;11.436;2023-09-07T05:43:20;16.40;99.90
29571;DHT22;16814;52.118;11.436;2023-09-07T05:45:52;16.30;99.90
29571;DHT22;16814;52.118;11.436;2023-09-07T05:48:19;16.30;99.90
29571;DHT22;16814;52.118;11.436;2023-09-07T05:50:45;16.40;99.90
29571;DHT22;16814;52.118;11.436;2023-09-07T05:53:12;16.50;99.90
29571;DHT22;16814;52.118;11.436;2023-09-07T05:55:42;16.30;99.90
29571;DHT22;16814;52.118;11.436;2023-09-07T05:58:08;16.30;99.90
29571;DHT22;16814;52.118;11.436;2023-09-07T06:00:37;16.40;99.90
29571;DHT22;16814;52.118;11.436;2023-09-07T06:03:08;16.50;99.90
29571;DHT22;16814;52.118;11.436;2023-09-07T06:05:37;16.50;99.90
29571;DHT22;16814;52.118;11.436;2023-09-07T06:08:06;16.50;99.90
29571;DHT22;16814;52.118;11.436;2023-09-07T06:10:32;16.60;99.90
29571;DHT22;16814;52.118;11.436;2023-09-07T06:13:00;16.60;99.90
29571;DHT22;16814;52.118;11.436;2023-09-07T06:15:29;16.60;99.90
29571;DHT22;16814;52.118;11.436;2023-09-07T06:17:57;16.60;99.90
29571;DHT22;16814;52.118;11.436;2023-09-07T06:20:23;16.50;99.90
29571;DHT22;16814;52.118;11.436;2023-09-07T06:22:50;16.60;99.90
29571;DHT22;16814;52.118;11.436;2023-09-07T06:25:17;16.60;99.90
29571;DHT22;16814;52.118;11.436;2023-09-07T06:27:45;16.60;99.90
29571;DHT22;16814;52.118;11.436;2023-09-07T06:30:11;16.80;99.90
29571;DHT22;16814;52.118;11.436;2023-09-07T06:32:39;17.00;99.90
29571;DHT22;16814;52.118;11.436;2023-09-07T06:35:12;17.10;99.90
29571;DHT22;16814;52.118;11.436;2023-09-07T06:37:42;17.50;99.90
29571;DHT22;16814;52.118;11.436;2023-09-07T06:40:16;18.10;99.90
29571;DHT22;16814;52.118;11.436;2023-09-07T06:42:45;18.40;99.90
29571;DHT22;16814;52.118;11.436;2023-09-07T06:45:10;18.70;99.90
29571;DHT22;16814;52.118;11.436;2023-09-07T06:47:36;18.70;99.90
29571;DHT22;16814;52.118;11.436;2023-09-07T06:50:04;19.10;99.90
29571;DHT22;16814;52.118;11.436;2023-09-07T06:52:31;20.20;99.90
29571;DHT22;16814;52.118;11.436;2023-09-07T06:54:56;21.40;99.90
29571;DHT22;16814;52.118;11.436;2023-09-07T06:57:22;22.30;99.90
29571;DHT22;16814;52.118;11.436;2023-09-07T06:59:48;23.30;99.90
29571;DHT22;16814;52.118;11.436;2023-09-07T07:02:17;24.10;99.90
29571;DHT22;16814;52.118;11.436;2023-09-07T07:04:42;24.50;99.90
29571;DHT22;16814;52.118;11.436;2023-09-07T07:07:09;25.00;99.90
29571;DHT22;16814;52.118;11.436;2023-09-07T07:09:37;25.20;99.90
29571;DHT22;16814;52.118;11.436;2023-09-07T07:12:03;25.20;99.90
29571;DHT22;16814;52.118;11.436;2023-09-07T07:14:33;25.10;99.90
29571;DHT22;16814;52.118;11.436;2023-09-07T07:17:01;25.00;99.90
29571;DHT22;16814;52.118;11.436;2023-09-07T07:19:33;25.20;99.90
29571;DHT22;16814;52.118;11.436;2023-09-07T07:22:01;24.90;99.90
29571;DHT22;16814;52.118;11.436;2023-09-07T07:24:30;24.60;99.90
29571;DHT22;16814;52.118;11.436;2023-09-07T07:26:58;24.50;99.90
29571;DHT22;16814;52.118;11.436;2023-09-07T07:29:25;24.60;99.90
29571;DHT22;16814;52.118;11.436;2023-09-07T07:31:52;24.50;99.90
29571;DHT22;16814;52.118;11.436;2023-09-07T07:34:18;24.40;99.90
29571;DHT22;16814;52.118;11.436;2023-09-07T07:36:47;24.30;99.90
29571;DHT22;16814;52.118;11.436;2023-09-07T07:39:14;23.90;99.90
29571;DHT22;16814;52.118;11.436;2023-09-07T07:41:41;23.70;99.90
29571;DHT22;16814;52.118;11.436;2023-09-07T07:44:15;23.60;99.90
29571;DHT22;16814;52.118;11.436;2023-09-07T07:46:42;23.40;99.90
29571;DHT22;16814;52.118;11.436;2023-09-07T07:49:09;23.80;99.90
29571;DHT22;16814;52.118;11.436;2023-09-07T07:51:37;23.60;99.90
29571;DHT22;16814;52.118;11.436;2023-09-07T07:54:02;23.30;99.90
29571;DHT22;16814;52.118;11.436;2023-09-07T07:56:30;23.50;99.90
29571;DHT22;16814;52.118;11.436;2023-09-07T07:58:56;23.70;99.90
29571;DHT22;16814;52.118;11.436;2023-09-07T08:01:24;23.80;99.90
29571;DHT22;16814;52.118;11.436;2023-09-07T08:03:53;23.90;99.90
29571;DHT22;16814;52.118;11.436;2023-09-07T08:06:21;24.10;99.90
29571;DHT22;16814;52.118;11.436;2023-09-07T08:08:49;24.30;99.90
29571;DHT22;16814;52.118;11.436;2023-09-07T08:11:15;24.80;99.90
29571;DHT22;16814;52.118;11.436;2023-09-07T08:13:40;25.00;99.90
29571;DHT22;16814;52.118;11.436;2023-09-07T08:16:08;25.60;99.90
29571;DHT22;16814;52.118;11.436;2023-09-07T08:18:36;25.00;99.90
29571;DHT22;16814;52.118;11.436;2023-09-07T08:21:03;25.20;99.90
29571;DHT22;16814;52.118;11.436;2023-09-07T08:23:31;25.20;99.90
29571;DHT22;16814;52.118;11.436;2023-09-07T08:25:58;25.30;99.90
29571;DHT22;16814;52.118;11.436;2023-09-07T08:28:27;25.40;99.90
29571;DHT22;16814;52.118;11.436;2023-09-07T08:30:56;25.60;99.90
29571;DHT22;16814;52.118;11.436;2023-09-07T08:33:25;25.90;99.90
29571;DHT22;16814;52.118;11.436;2023-09-07T08:36:00;25.90;99.90
29571;DHT22;16814;52.118;11.436;2023-09-07T08:38:27;26.10;99.90
29571;DHT22;16814;52.118;11.436;2023-09-07T08:41:02;26.30;99.90
29571;DHT22;16814;52.118;11.436;2023-09-07T08:43:43;26.40;99.90
29571;DHT22;16814;52.118;11.436;2023-09-07T08:46:25;26.30;99.90
29571;DHT22;16814;52.118;11.436;2023-09-07T08:48:58;26.20;99.90
29571;DHT22;16814;52.118;11.436;2023-09-07T08:51:27;26.10;99.90
29571;DHT22;16814;52.118;11.436;2023-09-07T08:53:53;26.10;99.90
29571;DHT22;16814;52.118;11.436;2023-09-07T08:56:26;26.30;99.90
29571;DHT22;16814;52.118;11.436;2023-09-07T08:58:53;26.50;99.90
29571;DHT22;16814;52.118;11.436;2023-09-07T09:01:19;26.80;99.90
29571;DHT22;16814;52.118;11.436;2023-09-07T09:03:50;26.80;99.90
29571;DHT22;16814;52.118;11.436;2023-09-07T09:06:23;26.70;99.90
29571;DHT22;16814;52.118;11.436;2023-09-07T09:08:53;26.90;99.90
29571;DHT22;16814;52.118;11.436;2023-09-07T09:11:27;26.80;99.90
29571;DHT22;16814;52.118;11.436;2023-09-07T09:13:55;26.90;99.90
29571;DHT22;16814;52.118;11.436;2023-09-07T09:16:26;27.20;99.90
29571;DHT22;16814;52.118;11.436;2023-09-07T09:19:00;27.20;99.90
29571;DHT22;16814;52.118;11.436;2023-09-07T09:21:26;27.30;99.90
29571;DHT22;16814;52.118;11.436;2023-09-07T09:23:56;27.60;99.90
29571;DHT22;16814;52.118;11.436;2023-09-07T09:26:24;28.00;99.90
29571;DHT22;16814;52.118;11.436;2023-09-07T09:28:51;27.70;99.70
29571;DHT22;16814;52.118;11.436;2023-09-07T09:31:20;27.70;99.90
29571;DHT22;16814;52.118;11.436;2023-09-07T09:33:49;27.90;99.90
29571;DHT22;16814;52.118;11.436;2023-09-07T09:36:20;28.10;99.90
29571;DHT22;16814;52.118;11.436;2023-09-07T09:38:53;28.70;99.60
29571;DHT22;16814;52.118;11.436;2023-09-07T09:41:20;28.20;99.50
29571;DHT22;16814;52.118;11.436;2023-09-07T09:43:50;28.30;99.00
29571;DHT22;16814;52.118;11.436;2023-09-07T09:46:20;28.30;99.00
29571;DHT22;16814;52.118;11.436;2023-09-07T09:48:51;28.50;99.80
29571;DHT22;16814;52.118;11.436;2023-09-07T09:51:20;28.70;99.00
29571;DHT22;16814;52.118;11.436;2023-09-07T09:53:46;28.90;98.40
29571;DHT22;16814;52.118;11.436;2023-09-07T09:56:12;29.10;98.00
29571;DHT22;16814;52.118;11.436;2023-09-07T09:58:39;29.10;97.20
29571;DHT22;16814;52.118;11.436;2023-09-07T10:01:06;29.10;97.50
29571;DHT22;16814;52.118;11.436;2023-09-07T10:03:45;28.70;97.50
29571;DHT22;16814;52.118;11.436;2023-09-07T10:09:11;29.00;97.50
29571;DHT22;16814;52.118;11.436;2023-09-07T10:11:41;29.00;97.30
29571;DHT22;16814;52.118;11.436;2023-09-07T10:14:09;28.90;96.80
29571;DHT22;16814;52.118;11.436;2023-09-07T10:16:43;29.10;96.80
29571;DHT22;16814;52.118;11.436;2023-09-07T10:19:24;29.20;97.20
29571;DHT22;16814;52.118;11.436;2023-09-07T10:21:55;29.40;96.10
29571;DHT22;16814;52.118;11.436;2023-09-07T10:24:30;29.50;95.70
29571;DHT22;16814;52.118;11.436;2023-09-07T10:27:07;29.40;95.20
29571;DHT22;16814;52.118;11.436;2023-09-07T10:29:55;29.40;95.90
29571;DHT22;16814;52.118;11.436;2023-09-07T10:32:22;29.40;95.30
29571;DHT22;16814;52.118;11.436;2023-09-07T10:34:53;29.20;95.00
29571;DHT22;16814;52.118;11.436;2023-09-07T10:37:18;29.40;95.30
29571;DHT22;16814;52.118;11.436;2023-09-07T10:39:47;29.40;96.00
29571;DHT22;16814;52.118;11.436;2023-09-07T10:42:25;29.40;95.00
29571;DHT22;16814;52.118;11.436;2023-09-07T10:44:52;29.40;94.90
29571;DHT22;16814;52.118;11.436;2023-09-07T10:47:20;29.40;95.60
29571;DHT22;16814;52.118;11.436;2023-09-07T10:49:47;29.70;95.90
29571;DHT22;16814;52.118;11.436;2023-09-07T10:52:16;29.30;94.30
29571;DHT22;16814;52.118;11.436;2023-09-07T10:54:43;29.20;94.70
29571;DHT22;16814;52.118;11.436;2023-09-07T10:57:11;29.30;94.40
29571;DHT22;16814;52.118;11.436;2023-09-07T10:59:45;29.20;94.50
29571;DHT22;16814;52.118;11.436;2023-09-07T11:02:13;29.50;94.40
29571;DHT22;16814;52.118;11.436;2023-09-07T11:04:41;29.30;93.90
29571;DHT22;16814;52.118;11.436;2023-09-07T11:07:11;29.30;94.10
29571;DHT22;16814;52.118;11.436;2023-09-07T11:09:45;29.50;94.00
29571;DHT22;16814;52.118;11.436;2023-09-07T11:12:16;29.40;94.70
29571;DHT22;16814;52.118;11.436;2023-09-07T11:14:53;29.50;93.90
29571;DHT22;16814;52.118;11.436;2023-09-07T11:17:26;29.30;93.70
29571;DHT22;16814;52.118;11.436;2023-09-07T11:19:55;29.20;94.20
29571;DHT22;16814;52.118;11.436;2023-09-07T11:22:22;29.00;94.60
29571;DHT22;16814;52.118;11.436;2023-09-07T11:24:48;29.00;94.80
29571;DHT22;16814;52.118;11.436;2023-09-07T11:27:18;28.80;94.10
29571;DHT22;16814;52.118;11.436;2023-09-07T11:29:52;28.90;94.90
29571;DHT22;16814;52.118;11.436;2023-09-07T11:32:22;28.90;95.20
29571;DHT22;16814;52.118;11.436;2023-09-07T11:34:51;28.70;94.30
29571;DHT22;16814;52.118;11.436;2023-09-07T11:37:26;28.70;95.20
29571;DHT22;16814;52.118;11.436;2023-09-07T11:39:53;29.50;94.60
29571;DHT22;16814;52.118;11.436;2023-09-07T11:42:23;29.40;95.10
29571;DHT22;16814;52.118;11.436;2023-09-07T11:44:50;28.40;94.50
29571;DHT22;16814;52.118;11.436;2023-09-07T11:47:18;28.40;94.30
29571;DHT22;16814;52.118;11.436;2023-09-07T11:49:46;28.40;94.20
29571;DHT22;16814;52.118;11.436;2023-09-07T11:52:17;28.30;94.10
29571;DHT22;16814;52.118;11.436;2023-09-07T11:54:49;28.30;94.30
29571;DHT22;16814;52.118;11.436;2023-09-07T11:57:15;28.20;94.10
29571;DHT22;16814;52.118;11.436;2023-09-07T11:59:43;28.10;95.20
29571;DHT22;16814;52.118;11.436;2023-09-07T12:02:11;28.20;94.60
29571;DHT22;16814;52.118;11.436;2023-09-07T12:04:40;28.10;94.00
29571;DHT22;16814;52.118;11.436;2023-09-07T12:07:06;28.50;92.60
29571;DHT22;16814;52.118;11.436;2023-09-07T12:09:33;28.00;93.30
29571;DHT22;16814;52.118;11.436;2023-09-07T12:12:02;28.10;93.60
29571;DHT22;16814;52.118;11.436;2023-09-07T12:14:30;28.10;93.80
29571;DHT22;16814;52.118;11.436;2023-09-07T12:16:58;28.10;93.40
29571;DHT22;16814;52.118;11.436;2023-09-07T12:19:24;28.00;94.80
29571;DHT22;16814;52.118;11.436;2023-09-07T12:21:54;28.00;92.90
29571;DHT22;16814;52.118;11.436;2023-09-07T12:24:22;28.20;92.90
29571;DHT22;16814;52.118;11.436;2023-09-07T12:26:49;28.10;93.40
29571;DHT22;16814;52.118;11.436;2023-09-07T12:29:14;28.20;92.70
29571;DHT22;16814;52.118;11.436;2023-09-07T12:31:41;28.00;93.10
29571;DHT22;16814;52.118;11.436;2023-09-07T12:34:08;28.10;92.80
29571;DHT22;16814;52.118;11.436;2023-09-07T12:36:35;28.10;92.00
29571;DHT22;16814;52.118;11.436;2023-09-07T12:39:00;28.10;92.50
29571;DHT22;16814;52.118;11.436;2023-09-07T12:41:31;28.20;91.30
29571;DHT22;16814;52.118;11.436;2023-09-07T12:43:58;28.20;91.00
29571;DHT22;16814;52.118;11.436;2023-09-07T12:46:25;28.30;90.20
29571;DHT22;16814;52.118;11.436;2023-09-07T12:48:52;28.30;89.60
29571;DHT22;16814;52.118;11.436;2023-09-07T12:51:20;28.30;90.50
29571;DHT22;16814;52.118;11.436;2023-09-07T12:53:48;28.30;90.80
29571;DHT22;16814;52.118;11.436;2023-09-07T12:56:16;28.30;88.90
29571;DHT22;16814;52.118;11.436;2023-09-07T12:58:44;28.30;88.60
29571;DHT22;16814;52.118;11.436;2023-09-07T13:01:09;28.40;90.20
29571;DHT22;16814;52.118;11.436;2023-09-07T13:03:37;28.30;90.00
29571;DHT22;16814;52.118;11.436;2023-09-07T13:06:04;28.30;90.10
29571;DHT22;16814;52.118;11.436;2023-09-07T13:08:32;28.20;89.40
29571;DHT22;16814;52.118;11.436;2023-09-07T13:10:59;28.20;90.00
29571;DHT22;16814;52.118;11.436;2023-09-07T13:13:29;28.20;89.40
29571;DHT22;16814;52.118;11.436;2023-09-07T13:15:59;28.10;88.30
29571;DHT22;16814;52.118;11.436;2023-09-07T13:18:27;28.10;87.40
29571;DHT22;16814;52.118;11.436;2023-09-07T13:20:53;28.10;86.50
29571;DHT22;16814;52.118;11.436;2023-09-07T13:23:25;28.10;86.50
29571;DHT22;16814;52.118;11.436;2023-09-07T13:26:01;28.10;88.00
29571;DHT22;16814;52.118;11.436;2023-09-07T13:28:28;28.20;86.60
29571;DHT22;16814;52.118;11.436;2023-09-07T13:30:56;28.20;86.20
29571;DHT22;16814;52.118;11.436;2023-09-07T13:33:22;28.20;85.30
29571;DHT22;16814;52.118;11.436;2023-09-07T13:35:47;28.20;85.20
29571;DHT22;16814;52.118;11.436;2023-09-07T13:38:13;28.20;84.20
29571;DHT22;16814;52.118;11.436;2023-09-07T13:40:41;28.10;84.50
29571;DHT22;16814;52.118;11.436;2023-09-07T13:43:08;28.00;86.20
29571;DHT22;16814;52.118;11.436;2023-09-07T13:45:35;28.00;84.60
29571;DHT22;16814;52.118;11.436;2023-09-07T13:48:05;28.00;85.10
29571;DHT22;16814;52.118;11.436;2023-09-07T13:50:33;28.10;85.40
29571;DHT22;16814;52.118;11.436;2023-09-07T13:53:00;28.10;86.40
29571;DHT22;16814;52.118;11.436;2023-09-07T13:55:25;28.10;85.50
29571;DHT22;16814;52.118;11.436;2023-09-07T13:57:53;28.00;85.50
29571;DHT22;16814;52.118;11.436;2023-09-07T14:00:20;28.10;85.40
29571;DHT22;16814;52.118;11.436;2023-09-07T14:02:48;28.10;84.20
29571;DHT22;16814;52.118;11.436;2023-09-07T14:05:16;28.00;83.30
29571;DHT22;16814;52.118;11.436;2023-09-07T14:07:44;28.70;84.80
29571;DHT22;16814;52.118;11.436;2023-09-07T14:10:09;28.00;84.10
29571;DHT22;16814;52.118;11.436;2023-09-07T14:12:35;28.10;83.60
29571;DHT22;16814;52.118;11.436;2023-09-07T14:15:04;28.10;84.70
29571;DHT22;16814;52.118;11.436;2023-09-07T14:17:34;27.90;83.50
29571;DHT22;16814;52.118;11.436;2023-09-07T14:20:04;27.90;84.00
29571;DHT22;16814;52.118;11.436;2023-09-07T14:22:31;28.00;83.30
29571;DHT22;16814;52.118;11.436;2023-09-07T14:24:58;28.00;84.30
29571;DHT22;16814;52.118;11.436;2023-09-07T14:27:26;28.00;83.00
29571;DHT22;16814;52.118;11.436;2023-09-07T14:29:54;28.00;84.00
29571;DHT22;16814;52.118;11.436;2023-09-07T14:32:21;28.00;84.40
29571;DHT22;16814;52.118;11.436;2023-09-07T14:34:48;28.00;84.20
29571;DHT22;16814;52.118;11.436;2023-09-07T14:37:24;28.00;85.10
29571;DHT22;16814;52.118;11.436;2023-09-07T14:39:50;28.10;83.70
29571;DHT22;16814;52.118;11.436;2023-09-07T14:42:17;28.70;83.80
29571;DHT22;16814;52.118;11.436;2023-09-07T14:44:45;28.20;83.10
29571;DHT22;16814;52.118;11.436;2023-09-07T14:47:15;28.10;82.30
29571;DHT22;16814;52.118;11.436;2023-09-07T14:49:41;28.10;84.40
29571;DHT22;16814;52.118;11.436;2023-09-07T14:52:07;28.10;84.10
29571;DHT22;16814;52.118;11.436;2023-09-07T14:54:34;28.10;85.40
29571;DHT22;16814;52.118;11.436;2023-09-07T14:57:02;28.10;84.60
29571;DHT22;16814;52.118;11.436;2023-09-07T14:59:30;28.20;84.80
29571;DHT22;16814;52.118;11.436;2023-09-07T15:01:56;28.10;85.40
29571;DHT22;16814;52.118;11.436;2023-09-07T15:04:23;28.10;85.80
29571;DHT22;16814;52.118;11.436;2023-09-07T15:06:51;28.00;86.10
29571;DHT22;16814;52.118;11.436;2023-09-07T15:09:19;28.00;86.20
29571;DHT22;16814;52.118;11.436;2023-09-07T15:11:48;28.30;86.50
29571;DHT22;16814;52.118;11.436;2023-09-07T15:14:15;28.10;85.90
29571;DHT22;16814;52.118;11.436;2023-09-07T15:16:44;28.10;86.50
29571;DHT22;16814;52.118;11.436;2023-09-07T15:19:11;28.00;86.30
29571;DHT22;16814;52.118;11.436;2023-09-07T15:21:39;27.90;87.40
29571;DHT22;16814;52.118;11.436;2023-09-07T15:24:05;28.10;87.10